createdAt,value
2022-09-27T00:03:50.468Z,14.30
2022-09-27T00:07:58.555Z,19.90
2022-09-27T00:12:32.153Z,16.70
2022-09-27T00:16:42.672Z,15.80
2022-09-27T00:20:50.213Z,16.00
2022-09-27T00:24:58.001Z,16.20
2022-09-27T00:29:06.129Z,14.90
2022-09-27T00:33:14.754Z,14.70
2022-09-27T00:37:26.170Z,14.30
2022-09-27T00:41:35.402Z,15.40
2022-09-27T00:45:42.998Z,15.60
2022-09-27T00:49:53.595Z,14.10
2022-09-27T00:54:01.689Z,14.80
2022-09-27T00:58:10.144Z,14.60
2022-09-27T01:02:18.488Z,15.10
2022-09-27T01:06:26.227Z,13.80
2022-09-27T01:10:38.598Z,16.40
2022-09-27T01:14:55.015Z,15.70
2022-09-27T01:19:08.773Z,15.60
2022-09-27T01:23:30.982Z,18.50
2022-09-27T01:27:56.166Z,17.50
2022-09-27T01:32:07.079Z,16.90
2022-09-27T01:36:30.338Z,15.60
2022-09-27T01:40:45.327Z,16.20
2022-09-27T01:44:56.309Z,18.40
2022-09-27T01:49:09.218Z,16.00
2022-09-27T01:53:20.696Z,19.00
2022-09-27T01:57:32.035Z,18.40
2022-09-27T02:01:41.473Z,16.20
2022-09-27T02:05:51.917Z,17.70
2022-09-27T02:10:01.407Z,14.40
2022-09-27T02:14:13.715Z,15.70
2022-09-27T02:18:25.937Z,18.20
2022-09-27T02:22:37.130Z,14.80
2022-09-27T02:26:47.189Z,13.60
2022-09-27T02:30:55.200Z,15.30
2022-09-27T02:35:06.359Z,16.00
2022-09-27T02:39:14.693Z,15.90
2022-09-27T02:43:24.968Z,17.20
2022-09-27T02:47:43.188Z,15.40
2022-09-27T02:51:59.093Z,15.70
2022-09-27T02:56:15.162Z,19.80
2022-09-27T03:00:24.415Z,14.70
2022-09-27T03:04:36.731Z,16.90
2022-09-27T03:08:47.041Z,16.90
2022-09-27T03:12:56.422Z,13.10
2022-09-27T03:17:03.997Z,13.50
2022-09-27T03:21:12.014Z,14.30
2022-09-27T03:25:20.208Z,14.20
2022-09-27T03:29:28.171Z,15.10
2022-09-27T03:33:35.650Z,14.40
2022-09-27T03:37:43.483Z,11.40
2022-09-27T03:41:51.343Z,14.20
2022-09-27T03:45:59.864Z,13.30
2022-09-27T03:50:12.550Z,15.40
2022-09-27T03:54:21.279Z,12.70
2022-09-27T03:58:28.954Z,12.00
2022-09-27T04:02:36.712Z,14.20
2022-09-27T04:06:44.813Z,15.20
2022-09-27T04:10:52.905Z,13.10
2022-09-27T04:15:00.687Z,12.10
2022-09-27T04:19:08.252Z,12.50
2022-09-27T04:23:16.233Z,14.00
2022-09-27T04:27:24.377Z,11.50
2022-09-27T04:31:32.444Z,12.10
2022-09-27T04:35:57.603Z,13.30
2022-09-27T04:40:06.238Z,13.00
2022-09-27T04:44:13.824Z,15.60
2022-09-27T04:48:21.623Z,21.30
2022-09-27T04:52:32.274Z,14.20
2022-09-27T04:56:41.477Z,14.60
2022-09-27T05:00:58.922Z,17.30
2022-09-27T05:05:11.504Z,16.40
2022-09-27T05:09:19.656Z,14.50
2022-09-27T05:13:29.424Z,14.50
2022-09-27T05:17:38.306Z,12.20
2022-09-27T05:21:46.068Z,14.40
2022-09-27T05:25:56.893Z,14.00
2022-09-27T05:30:08.422Z,14.80
2022-09-27T05:34:15.695Z,14.90
2022-09-27T05:38:23.648Z,13.20
2022-09-27T05:42:31.441Z,12.20
2022-09-27T05:46:39.330Z,11.80
2022-09-27T05:50:47.283Z,15.50
2022-09-27T05:54:55.719Z,14.20
2022-09-27T05:59:04.342Z,14.10
2022-09-27T06:03:14.791Z,15.20
2022-09-27T06:07:22.034Z,14.40
2022-09-27T06:11:30.074Z,14.60
2022-09-27T06:15:40.848Z,15.40
2022-09-27T06:19:49.596Z,15.70
2022-09-27T06:23:59.694Z,17.20
2022-09-27T06:28:08.623Z,14.50
2022-09-27T06:32:16.471Z,14.60
2022-09-27T06:36:24.568Z,14.70
2022-09-27T06:40:32.924Z,14.70
2022-09-27T06:44:41.249Z,15.70
2022-09-27T06:48:49.045Z,15.40
2022-09-27T06:52:56.831Z,14.50
2022-09-27T06:57:05.475Z,12.70
2022-09-27T07:01:13.600Z,12.70
2022-09-27T07:05:21.441Z,14.30
2022-09-27T07:09:29.106Z,13.60
2022-09-27T07:13:40.619Z,13.80
2022-09-27T07:17:57.226Z,14.60
2022-09-27T07:22:05.038Z,13.50
2022-09-27T07:26:13.235Z,12.70
2022-09-27T07:30:21.538Z,14.40
2022-09-27T07:34:29.809Z,13.90
2022-09-27T07:38:37.384Z,13.00
2022-09-27T07:42:45.025Z,11.90
2022-09-27T07:46:53.133Z,10.10
2022-09-27T07:51:00.709Z,13.20
2022-09-27T07:55:10.932Z,13.10
2022-09-27T07:59:19.018Z,11.50
2022-09-27T08:03:27.458Z,12.30
2022-09-27T08:07:36.163Z,15.10
2022-09-27T08:11:45.087Z,15.20
2022-09-27T08:15:54.733Z,15.60
2022-09-27T08:20:06.853Z,14.00
2022-09-27T08:24:14.691Z,25.00
2022-09-27T08:28:22.921Z,21.30
2022-09-27T08:32:30.951Z,22.40
2022-09-27T08:36:38.368Z,14.10
2022-09-27T08:40:54.868Z,13.10
2022-09-27T08:45:09.292Z,12.90
2022-09-27T08:49:22.704Z,14.50
2022-09-27T08:53:32.343Z,13.90
2022-09-27T08:57:39.731Z,15.10
2022-09-27T09:01:47.902Z,16.70
2022-09-27T09:06:06.671Z,14.80
2022-09-27T09:10:42.202Z,14.50
2022-09-27T09:15:07.688Z,16.60
2022-09-27T09:19:29.297Z,14.10
2022-09-27T09:23:51.881Z,15.80
2022-09-27T09:28:09.810Z,13.60
2022-09-27T09:32:28.226Z,16.10
2022-09-27T09:36:39.482Z,15.30
2022-09-27T09:40:50.015Z,15.10
2022-09-27T09:45:00.918Z,16.90
2022-09-27T09:49:16.717Z,17.90
2022-09-27T09:53:25.830Z,15.40
2022-09-27T09:57:37.863Z,15.10
2022-09-27T10:01:46.789Z,15.50
2022-09-27T10:05:54.882Z,14.50
2022-09-27T10:10:03.708Z,14.70
2022-09-27T10:14:14.465Z,14.60
2022-09-27T10:18:23.023Z,13.00
2022-09-27T10:22:33.125Z,13.30
2022-09-27T10:26:43.297Z,14.30
2022-09-27T10:30:58.560Z,14.50
2022-09-27T10:35:37.846Z,14.80
2022-09-27T10:39:45.898Z,14.60
2022-09-27T10:43:53.708Z,14.50
2022-09-27T10:48:02.472Z,13.20
2022-09-27T10:52:15.649Z,14.30
2022-09-27T10:56:28.142Z,14.60
2022-09-27T11:00:37.539Z,12.60
2022-09-27T11:04:45.213Z,14.80
2022-09-27T11:08:53.234Z,13.20
2022-09-27T11:13:13.465Z,13.70
2022-09-27T11:17:23.678Z,12.20
2022-09-27T11:21:40.414Z,11.30
2022-09-27T11:26:08.138Z,11.90
2022-09-27T11:30:17.585Z,10.60
2022-09-27T11:34:38.158Z,12.60
2022-09-27T11:39:02.353Z,14.80
2022-09-27T11:43:33.788Z,13.20
2022-09-27T11:47:51.179Z,10.20
2022-09-27T11:52:10.440Z,10.20
2022-09-27T11:56:29.099Z,9.60
2022-09-27T12:00:48.825Z,9.40
2022-09-27T12:05:34.065Z,10.80
2022-09-27T12:09:45.037Z,9.90
2022-09-27T12:13:56.227Z,8.70
2022-09-27T12:18:09.985Z,8.30
2022-09-27T12:22:34.649Z,8.30
2022-09-27T12:26:49.252Z,7.80
2022-09-27T12:31:27.101Z,9.10
2022-09-27T12:35:31.097Z,9.10
2022-09-27T12:39:46.827Z,7.70
2022-09-27T12:43:55.285Z,6.60
2022-09-27T12:48:09.869Z,7.00
2022-09-27T12:52:25.569Z,7.50
2022-09-27T12:56:54.021Z,5.80
2022-09-27T13:01:07.661Z,6.60
2022-09-27T13:05:39.585Z,5.70
2022-09-27T13:10:10.539Z,6.20
2022-09-27T13:14:22.072Z,7.00
2022-09-27T13:18:56.310Z,7.20
2022-09-27T13:23:05.225Z,6.00
2022-09-27T13:27:38.846Z,6.40
2022-09-27T13:32:10.286Z,4.60
2022-09-27T13:36:31.196Z,6.20
2022-09-27T13:40:39.870Z,5.60
2022-09-27T13:44:54.919Z,6.70
2022-09-27T13:49:06.437Z,7.80
2022-09-27T13:53:26.872Z,7.10
2022-09-27T13:57:49.733Z,7.50
2022-09-27T14:02:00.890Z,6.40
2022-09-27T14:06:12.967Z,8.20
2022-09-27T14:10:23.279Z,7.40
2022-09-27T14:14:33.197Z,7.50
2022-09-27T14:18:48.168Z,6.20
2022-09-27T14:22:58.146Z,7.00
2022-09-27T14:27:17.738Z,6.90
2022-09-27T14:31:26.993Z,7.00
2022-09-27T14:35:53.148Z,7.10
2022-09-27T14:40:04.679Z,7.80
2022-09-27T14:44:18.504Z,8.10
2022-09-27T14:48:28.592Z,9.30
2022-09-27T14:52:40.556Z,9.30
2022-09-27T14:56:52.798Z,8.20
2022-09-27T15:01:02.039Z,6.00
2022-09-27T15:05:17.594Z,6.70
2022-09-27T15:09:29.776Z,8.10
2022-09-27T15:13:42.323Z,13.60
2022-09-27T15:17:50.792Z,11.00
2022-09-27T15:21:58.804Z,7.60
2022-09-27T15:26:16.943Z,10.30
2022-09-27T15:30:30.267Z,13.30
2022-09-27T15:34:38.995Z,7.60
2022-09-27T15:38:47.573Z,11.00
2022-09-27T15:43:02.674Z,8.70
2022-09-27T15:47:50.543Z,9.80
2022-09-27T15:51:59.553Z,13.10
2022-09-27T15:56:08.897Z,7.20
2022-09-27T16:00:20.738Z,6.10
2022-09-27T16:04:31.828Z,5.90
2022-09-27T16:08:39.533Z,5.40
2022-09-27T16:12:46.656Z,5.40
2022-09-27T16:16:58.952Z,5.60
2022-09-27T16:21:07.336Z,9.70
2022-09-27T16:25:15.254Z,14.70
2022-09-27T16:29:22.794Z,6.30
2022-09-27T16:33:31.784Z,9.80
2022-09-27T16:37:39.477Z,11.10
2022-09-27T16:41:46.834Z,12.50
2022-09-27T16:45:55.869Z,10.40
2022-09-27T16:50:21.093Z,14.80
2022-09-27T16:54:29.514Z,15.30
2022-09-27T16:58:37.329Z,18.20
2022-09-27T17:02:47.214Z,18.00
2022-09-27T17:06:55.572Z,16.70
2022-09-27T17:11:03.002Z,11.60
2022-09-27T17:15:12.218Z,11.30
2022-09-27T17:19:19.819Z,16.00
2022-09-27T17:23:29.581Z,13.60
2022-09-27T17:27:37.653Z,18.10
2022-09-27T17:31:46.430Z,20.10
2022-09-27T17:36:08.457Z,17.50
2022-09-27T17:40:17.157Z,13.60
2022-09-27T17:44:27.268Z,11.40
2022-09-27T17:48:53.235Z,11.20
2022-09-27T17:53:01.615Z,10.90
2022-09-27T17:57:09.163Z,9.00
2022-09-27T18:01:16.847Z,8.00
2022-09-27T18:05:24.883Z,10.80
2022-09-27T18:09:32.976Z,12.80
2022-09-27T18:13:42.206Z,15.20
2022-09-27T18:17:57.814Z,10.40
2022-09-27T18:22:08.177Z,10.10
2022-09-27T18:26:15.997Z,15.10
2022-09-27T18:30:24.348Z,16.60
2022-09-27T18:34:32.596Z,20.00
2022-09-27T18:38:40.469Z,22.20
2022-09-27T18:42:52.590Z,16.30
2022-09-27T18:47:00.710Z,16.70
2022-09-27T18:51:11.370Z,24.20
2022-09-27T18:55:25.172Z,24.70
2022-09-27T18:59:34.798Z,22.70
2022-09-27T19:03:43.327Z,20.30
2022-09-27T19:07:50.461Z,26.80
2022-09-27T19:12:00.152Z,17.00
2022-09-27T19:16:08.455Z,14.80
2022-09-27T19:20:16.194Z,14.30
2022-09-27T19:24:24.076Z,12.80
2022-09-27T19:28:34.167Z,14.00
2022-09-27T19:32:41.967Z,13.50
2022-09-27T19:36:55.655Z,14.30
2022-09-27T19:41:04.994Z,14.70
2022-09-27T19:45:14.714Z,15.00
2022-09-27T19:49:23.133Z,9.70
2022-09-27T19:53:32.974Z,11.30
2022-09-27T19:57:40.352Z,9.00
2022-09-27T20:01:48.428Z,9.70
2022-09-27T20:05:57.120Z,10.50
2022-09-27T20:10:13.089Z,9.30
2022-09-27T20:14:20.708Z,9.40
2022-09-27T20:18:28.735Z,11.80
2022-09-27T20:22:36.093Z,15.00
2022-09-27T20:26:44.799Z,15.50
2022-09-27T20:31:01.379Z,13.40
2022-09-27T20:35:11.235Z,13.50
2022-09-27T20:39:19.207Z,12.60
2022-09-27T20:43:27.652Z,12.20
2022-09-27T20:47:37.444Z,12.60
2022-09-27T20:51:48.676Z,10.60
2022-09-27T20:55:56.781Z,14.00
2022-09-27T21:00:04.625Z,15.60
2022-09-27T21:04:13.035Z,16.10
2022-09-27T21:08:20.835Z,21.50
2022-09-27T21:12:28.532Z,22.80
2022-09-27T21:16:39.186Z,16.70
2022-09-27T21:20:47.071Z,15.30
2022-09-27T21:24:55.329Z,17.90
2022-09-27T21:29:09.223Z,22.70
2022-09-27T21:33:16.850Z,19.30
2022-09-27T21:37:24.348Z,19.90
2022-09-27T21:41:32.356Z,17.20
2022-09-27T21:45:40.254Z,16.10
2022-09-27T21:49:48.065Z,14.40
2022-09-27T21:53:57.321Z,16.50
2022-09-27T21:58:05.347Z,17.90
2022-09-27T22:02:13.646Z,18.00
2022-09-27T22:06:23.122Z,16.20
2022-09-27T22:10:31.494Z,14.20
2022-09-27T22:14:39.564Z,12.40
2022-09-27T22:18:48.064Z,10.00
2022-09-27T22:22:56.793Z,11.40
2022-09-27T22:27:04.332Z,8.70
2022-09-27T22:31:15.298Z,10.20
2022-09-27T22:35:24.180Z,12.00
2022-09-27T22:39:31.996Z,10.10
2022-09-27T22:43:39.365Z,11.90
2022-09-27T22:47:46.954Z,13.40
2022-09-27T22:51:54.609Z,14.40
2022-09-27T22:56:04.819Z,13.50
2022-09-27T23:00:15.533Z,14.30
2022-09-27T23:04:23.522Z,11.60
2022-09-27T23:08:33.767Z,11.10
2022-09-27T23:12:41.687Z,10.30
2022-09-27T23:16:50.110Z,10.10
2022-09-27T23:21:04.055Z,9.30
2022-09-27T23:25:13.323Z,10.00
2022-09-27T23:29:20.811Z,9.80
2022-09-27T23:33:30.493Z,9.10
2022-09-27T23:37:38.164Z,10.90
2022-09-27T23:41:45.761Z,9.90
2022-09-27T23:45:57.650Z,9.40
2022-09-27T23:50:05.922Z,10.00
2022-09-27T23:54:14.065Z,10.00
2022-09-27T23:58:23.240Z,8.50
